Magnet, Nebraska
Current Conditions -  °F | °C
As of 9:15 AM on Thursday 30 Oct 2014 (Local Time) from KLCG Reporting Station
Clear Clear  
Wind Chill: 40°   Ceiling: Unl
Heat Index: 46°   Visibility: 10mi
Dew Point: 38°   Wind: 12mph
Humidity: 73%   Direction: 310°NW
Pressure: 30.07"   Gusts: NA
Location:  42.46°N, 97.47°W
Report Text: KLCG 301415Z AUTO 31010KT 10SM CLR 08/03 A3007 RMK AO2 T00760031
Loading
Personal Weather Stations






























Interactive Weather Map
Tropical Storm Tracking
New forecast layout! Learn more

10-Day Weather Forecast

Advertisements
Track Severe Weather on mobile